Weather History for Grove, OK

Change the Weather History Date:

Wednesday, January 16, 2013

  Actual Average (KSLG) Record (KSLG)
Temperature  
Mean Temperature 30 °F -  
Max Temperature 42 °F 44 °F 66 °F (2006)
Min Temperature 17 °F 27 °F 10 °F (1997)
Degree Days  
Heating Degree Days 36    
Moisture  
Dew Point 22 °F    
Average Humidity 77    
Maximum Humidity 100    
Minimum Humidity 42    
Precipitation  
Precipitation 0.00 in - - ()
Sea Level Pressure  
Sea Level Pressure 30.18 in    
Wind  
Wind Speed 1 mph (SW)    
Max Wind Speed 10 mph    
Max Gust Speed -    
Visibility 9 miles    
Events      
Averages and records for this station are not official NWS values.
T = Trace of Precipitation, MM = Missing Value Source: NWS Daily Summary

Daily Weather History Graph

Daily Weather History Graph

Search for Another Location

Airport:

Trip Planner

Search our weather history database for the weather conditions in past years. The results will help you decide how hot, cold, wet, or windy it might be!

Date:

Astronomy

Jan. 16, 2013 Rise Set
Actual Time 7:29 AM CST 5:28 PM CST
Civil Twilight 7:01 AM CST 5:56 PM CST
Nautical Twilight 6:30 AM CST 6:27 PM CST
Astronomical Twilight 5:59 AM CST 6:58 PM CST
Moon 10:16 AM CST (1/16) 11:09 PM CST (1/16)
Length of Visible Light 10h 54m
Length of Day
9h 58m
Waxing Crescent, 28% of the Moon is Illuminated
Jan 16
Waxing Crescent
Jan 18
First Quarter
Jan 26
Full
Feb 3
Last Quarter
Feb 10
New

Hourly Weather History & Observations

Time (CST) Temp. Windchill Dew Point Humidity Pressure Visibility Wind Dir Wind Speed Gust Speed Precip Events Conditions
12:15 AM 23.0 °F - 21.2 °F 93% 30.22 in 10.0 mi Calm Calm - N/A   Clear
12:35 AM 21.2 °F - 19.4 °F 93% 30.22 in 10.0 mi Calm Calm - N/A   Clear
12:55 AM 21.2 °F - 21.2 °F 100% 30.21 in 10.0 mi Calm Calm - N/A   Clear
1:15 AM 21.2 °F - 19.4 °F 93% 30.22 in 10.0 mi Calm Calm - N/A   Clear
1:35 AM 21.2 °F - 19.4 °F 93% 30.22 in 10.0 mi Calm Calm - N/A   Clear
1:55 AM 21.2 °F - 21.2 °F 100% 30.22 in 10.0 mi Calm Calm - N/A   Clear
2:15 AM 21.2 °F - 21.2 °F 100% 30.22 in 10.0 mi Calm Calm - N/A   Clear
2:35 AM 21.2 °F - 21.2 °F 100% 30.21 in 7.0 mi Calm Calm - N/A   Clear
2:55 AM 21.2 °F - 21.2 °F 100% 30.21 in 10.0 mi Calm Calm - N/A   Clear
3:15 AM 19.4 °F - 19.4 °F 100% 30.20 in 10.0 mi Calm Calm - N/A   Clear
3:35 AM 19.4 °F - 19.4 °F 100% 30.20 in 7.0 mi Calm Calm - N/A   Clear
3:55 AM 19.4 °F - 19.4 °F 100% 30.18 in 7.0 mi Calm Calm - N/A   Clear
4:15 AM 19.4 °F - 19.4 °F 100% 30.18 in 7.0 mi Calm Calm - N/A   Clear
4:35 AM 19.4 °F - 19.4 °F 100% 30.18 in 10.0 mi Calm Calm - N/A   Clear
4:55 AM 19.4 °F - 19.4 °F 100% 30.18 in 7.0 mi Calm Calm - N/A   Clear
5:15 AM 19.4 °F - 19.4 °F 100% 30.18 in 10.0 mi Calm Calm - N/A   Clear
5:35 AM 19.4 °F - 19.4 °F 100% 30.18 in 10.0 mi Calm Calm - N/A   Clear
5:55 AM 17.6 °F - 17.6 °F 100% 30.19 in 7.0 mi Calm Calm - N/A   Clear
6:35 AM 17.6 °F - 17.6 °F 100% 30.19 in 7.0 mi Calm Calm - N/A   Clear
6:55 AM 17.6 °F - 17.6 °F 100% 30.20 in 7.0 mi Calm Calm - N/A   Clear
7:15 AM 17.6 °F - 17.6 °F 100% 30.20 in 7.0 mi Calm Calm - N/A   Clear
7:35 AM 17.6 °F - 17.6 °F 100% 30.20 in 7.0 mi Calm Calm - N/A   Clear
7:55 AM 17.6 °F - 17.6 °F 100% 30.20 in 7.0 mi Calm Calm - N/A   Clear
8:15 AM 19.4 °F - 19.4 °F 100% 30.21 in 7.0 mi Calm Calm - N/A   Clear
8:35 AM 21.2 °F - 21.2 °F 100% 30.22 in 7.0 mi Calm Calm - N/A   Clear
8:55 AM 23.0 °F - 23.0 °F 100% 30.21 in 7.0 mi Calm Calm - N/A   Clear
9:15 AM 26.6 °F - 26.6 °F 100% 30.22 in 7.0 mi Calm Calm - N/A   Clear
9:35 AM 28.4 °F - 24.8 °F 86% 30.22 in 10.0 mi Calm Calm - N/A   Clear
9:55 AM 30.2 °F 26.7 °F 23.0 °F 75% 30.21 in 10.0 mi South 3.5 mph - N/A   Clear
10:15 AM 32.0 °F 28.7 °F 24.8 °F 75% 30.21 in 10.0 mi SSW 3.5 mph - N/A   Clear
10:35 AM 33.8 °F 29.6 °F 23.0 °F 65% 30.21 in 10.0 mi WSW 4.6 mph - N/A   Clear
10:55 AM 35.6 °F 31.7 °F 21.2 °F 56% 30.21 in 10.0 mi SW 4.6 mph - N/A   Clear
11:15 AM 35.6 °F 29.9 °F 21.2 °F 56% 30.20 in 10.0 mi West 6.9 mph - N/A   Clear
11:35 AM 37.4 °F 30.8 °F 21.2 °F 52% 30.19 in 10.0 mi WSW 9.2 mph - N/A   Clear
11:55 AM 37.4 °F 31.4 °F 19.4 °F 48% 30.18 in 10.0 mi West 8.1 mph - N/A   Clear
12:15 PM 37.4 °F 30.3 °F 19.4 °F 48% 30.16 in 10.0 mi SSW 10.4 mph - N/A   Clear
12:35 PM 41.0 °F 36.4 °F 21.2 °F 45% 30.16 in 10.0 mi SSW 6.9 mph - N/A   Clear
12:55 PM 41.0 °F 35.8 °F 19.4 °F 42% 30.14 in 10.0 mi West 8.1 mph - N/A   Clear
1:15 PM 41.0 °F 35.2 °F 21.2 °F 45% 30.14 in 10.0 mi WSW 9.2 mph - N/A   Clear
1:35 PM 41.0 °F 35.8 °F 21.2 °F 45% 30.13 in 10.0 mi WSW 8.1 mph - N/A   Clear
1:55 PM 42.8 °F 37.5 °F 21.2 °F 42% 30.14 in 10.0 mi West 9.2 mph - N/A   Clear
2:15 PM 42.8 °F 38.0 °F 21.2 °F 42% 30.13 in 10.0 mi SW 8.1 mph - N/A   Clear
2:35 PM 42.8 °F 38.6 °F 21.2 °F 42% 30.13 in 10.0 mi WSW 6.9 mph - N/A   Clear
2:55 PM 42.8 °F 39.3 °F 21.2 °F 42% 30.12 in 10.0 mi West 5.8 mph - N/A   Clear
3:15 PM 42.8 °F 38.0 °F 21.2 °F 42% 30.12 in 10.0 mi WSW 8.1 mph - N/A   Clear
3:35 PM 42.8 °F 38.6 °F 21.2 °F 42% 30.13 in 10.0 mi WSW 6.9 mph - N/A   Clear
3:55 PM 42.8 °F 39.3 °F 21.2 °F 42% 30.13 in 10.0 mi SW 5.8 mph - N/A   Clear
4:35 PM 42.8 °F 40.1 °F 21.2 °F 42% 30.13 in 10.0 mi WSW 4.6 mph - N/A   Clear
4:55 PM 42.8 °F 40.1 °F 21.2 °F 42% 30.14 in 10.0 mi SW 4.6 mph - N/A   Clear
5:15 PM 41.0 °F 39.0 °F 21.2 °F 45% 30.14 in 10.0 mi SSW 3.5 mph - N/A   Clear
5:35 PM 39.2 °F 37.0 °F 21.2 °F 49% 30.14 in 10.0 mi South 3.5 mph - N/A   Clear
5:55 PM 35.6 °F - 23.0 °F 60% 30.14 in 10.0 mi Calm Calm - N/A   Clear
6:15 PM 35.6 °F - 23.0 °F 60% 30.15 in 10.0 mi Calm Calm - N/A   Clear
6:35 PM 33.8 °F - 23.0 °F 65% 30.15 in 10.0 mi Calm Calm - N/A   Clear
6:55 PM 33.8 °F - 23.0 °F 65% 30.15 in 10.0 mi Calm Calm - N/A   Clear
7:15 PM 33.8 °F - 23.0 °F 65% 30.16 in 10.0 mi Calm Calm - N/A   Clear
7:35 PM 33.8 °F - 23.0 °F 65% 30.16 in 10.0 mi Calm Calm - N/A   Clear
7:55 PM 32.0 °F - 23.0 °F 69% 30.16 in 10.0 mi Calm Calm - N/A   Clear
8:15 PM 32.0 °F - 24.8 °F 75% 30.17 in 10.0 mi Calm Calm - N/A   Clear
8:35 PM 30.2 °F - 24.8 °F 80% 30.17 in 10.0 mi Calm Calm - N/A   Clear
8:55 PM 30.2 °F - 26.6 °F 86% 30.17 in 10.0 mi Calm Calm - N/A   Clear
9:15 PM 30.2 °F - 26.6 °F 86% 30.18 in 10.0 mi Calm Calm - N/A   Clear
9:35 PM 30.2 °F - 24.8 °F 80% 30.18 in 10.0 mi Calm Calm - N/A   Clear
9:55 PM 30.2 °F - 26.6 °F 86% 30.19 in 10.0 mi Calm Calm - N/A   Clear
10:15 PM 28.4 °F - 24.8 °F 86% 30.19 in 10.0 mi Calm Calm - N/A   Clear
10:35 PM 28.4 °F - 26.6 °F 93% 30.19 in 10.0 mi Calm Calm - N/A   Clear
10:55 PM 28.4 °F - 26.6 °F 93% 30.19 in 10.0 mi Calm Calm - N/A   Clear
11:15 PM 28.4 °F - 28.4 °F 100% 30.20 in 10.0 mi Calm Calm - N/A   Clear
11:35 PM 26.6 °F - 26.6 °F 100% 30.21 in 10.0 mi Calm Calm - N/A   Clear
11:55 PM 28.4 °F - 26.6 °F 93% 30.21 in 10.0 mi Calm Calm - N/A   Clear